Time;durP1;ratioP1;P1;durP2;ratioP2;P2;SDS_P1;SDS_P2;PMS_P1;PMS_P2;Temp;Humidity;BMP_temperature;BMP_pressure;BME280_temperature;BME280_humidity;BME280_pressure;Samples;Min_cycle;Max_cycle;Signal;HPM_P1;HPM_P2
2021/06/07 00:01:18;;;;;;;;;;;16.10;99.90;;;;;;5030503;28;20005;-54
2021/06/07 00:03:43;;;;;;;;;;;16.10;99.90;;;;;;5028843;28;19916;-53
2021/06/07 00:06:09;;;;;;;;;;;16.10;99.90;;;;;;5030141;28;19917;-53
2021/06/07 00:08:34;;;;;;;;;;;16.10;99.90;;;;;;5030496;28;20011;-55
2021/06/07 00:11:00;;;;;;;;;;;16.10;99.90;;;;;;5030169;28;20118;-56
2021/06/07 00:13:25;;;;;;;;;;;16.10;99.90;;;;;;5030071;28;19913;-56
2021/06/07 00:15:53;;;;;;;;;;;16.10;99.90;;;;;;5027742;28;19917;-56
2021/06/07 00:18:19;;;;;;;;;;;16.10;99.90;;;;;;5030071;28;20280;-55
2021/06/07 00:20:46;;;;;;;;;;;16.00;99.90;;;;;;5030090;28;19988;-54
2021/06/07 00:23:12;;;;;;;;;;;16.00;99.90;;;;;;5025888;28;19909;-55
2021/06/07 00:25:39;;;;;;;;;;;16.00;99.90;;;;;;5028336;28;19936;-52
2021/06/07 00:28:06;;;;;;;;;;;16.00;99.90;;;;;;5029704;28;19909;-55
2021/06/07 00:30:31;;;;;;;;;;;16.00;99.90;;;;;;5029605;28;19958;-55
2021/06/07 00:32:57;;;;;;;;;;;15.90;99.90;;;;;;5026598;28;19913;-56
2021/06/07 00:35:23;;;;;;;;;;;15.90;99.90;;;;;;5029206;28;19909;-54
2021/06/07 00:37:48;;;;;;;;;;;15.90;99.90;;;;;;5029743;28;19909;-54
2021/06/07 00:40:15;;;;;;;;;;;15.80;99.90;;;;;;5029090;28;19920;-56
2021/06/07 00:42:40;;;;;;;;;;;15.80;99.90;;;;;;5028319;28;20011;-55
2021/06/07 00:45:10;;;;;;;;;;;15.80;99.90;;;;;;5029348;28;20009;-52
2021/06/07 00:47:37;;;;;;;;;;;15.80;99.90;;;;;;5029759;28;19919;-55
2021/06/07 00:50:06;;;;;;;;;;;15.80;99.90;;;;;;5029472;28;19909;-52
2021/06/07 00:52:32;;;;;;;;;;;15.80;99.90;;;;;;5029365;28;19913;-54
2021/06/07 00:54:57;;;;;;;;;;;15.80;99.90;;;;;;5027767;28;19915;-55
2021/06/07 00:57:22;;;;;;;;;;;15.80;99.90;;;;;;5029117;28;19917;-53
2021/06/07 00:59:48;;;;;;;;;;;15.70;99.90;;;;;;5027004;28;20000;-55
2021/06/07 01:02:14;;;;;;;;;;;15.70;99.90;;;;;;5025776;28;19967;-57
2021/06/07 01:04:40;;;;;;;;;;;15.80;99.90;;;;;;5027697;28;20082;-56
2021/06/07 01:07:05;;;;;;;;;;;15.80;99.90;;;;;;5029636;28;20017;-55
2021/06/07 01:09:31;;;;;;;;;;;15.80;99.90;;;;;;5029337;28;20399;-52
2021/06/07 01:11:56;;;;;;;;;;;15.80;99.90;;;;;;5029004;28;19910;-55
2021/06/07 01:14:22;;;;;;;;;;;15.80;99.90;;;;;;5028847;28;19920;-53
2021/06/07 01:16:47;;;;;;;;;;;15.80;99.90;;;;;;5029399;28;19947;-55
2021/06/07 01:19:13;;;;;;;;;;;15.80;99.90;;;;;;5029214;28;19910;-52
2021/06/07 01:21:39;;;;;;;;;;;15.80;99.90;;;;;;5029051;28;19909;-56
2021/06/07 01:24:05;;;;;;;;;;;15.80;99.90;;;;;;5028983;28;19932;-52
2021/06/07 01:26:30;;;;;;;;;;;15.80;99.90;;;;;;5027179;28;20284;-55
2021/06/07 01:28:56;;;;;;;;;;;15.80;99.90;;;;;;5027638;28;19909;-55
2021/06/07 01:31:22;;;;;;;;;;;15.80;99.90;;;;;;5028670;28;19913;-51
2021/06/07 01:33:50;;;;;;;;;;;15.80;99.90;;;;;;5028643;28;19909;-53
2021/06/07 01:36:15;;;;;;;;;;;15.70;99.90;;;;;;5022127;28;19916;-53
2021/06/07 01:38:41;;;;;;;;;;;15.70;99.90;;;;;;5019188;28;19913;-55
2021/06/07 01:41:07;;;;;;;;;;;15.60;99.90;;;;;;5028625;28;19909;-51
2021/06/07 01:43:34;;;;;;;;;;;15.70;99.90;;;;;;5028414;28;19932;-50
2021/06/07 01:46:00;;;;;;;;;;;15.60;99.90;;;;;;5028366;28;19920;-53
2021/06/07 01:48:26;;;;;;;;;;;15.70;99.90;;;;;;5028747;28;19914;-55
2021/06/07 01:50:53;;;;;;;;;;;15.70;99.90;;;;;;5028829;28;19916;-52
2021/06/07 01:53:20;;;;;;;;;;;15.60;99.90;;;;;;5028543;28;19920;-53
2021/06/07 01:55:47;;;;;;;;;;;15.70;99.90;;;;;;5027904;28;19909;-54
2021/06/07 01:58:13;;;;;;;;;;;15.70;99.90;;;;;;5020507;28;20008;-51
2021/06/07 02:00:42;;;;;;;;;;;15.70;99.90;;;;;;5028458;28;19917;-54
2021/06/07 02:03:08;;;;;;;;;;;15.70;99.90;;;;;;5027078;28;19917;-53
2021/06/07 02:05:35;;;;;;;;;;;15.70;99.90;;;;;;5027933;28;19913;-53
2021/06/07 02:08:04;;;;;;;;;;;15.70;99.90;;;;;;5028459;28;19956;-55
2021/06/07 02:10:32;;;;;;;;;;;15.70;99.90;;;;;;5028590;28;19985;-54
2021/06/07 02:12:58;;;;;;;;;;;15.60;99.90;;;;;;5028604;28;19910;-51
2021/06/07 02:15:24;;;;;;;;;;;15.70;99.90;;;;;;5028184;28;19916;-56
2021/06/07 02:17:50;;;;;;;;;;;15.60;99.90;;;;;;5028344;28;20003;-53
2021/06/07 02:20:17;;;;;;;;;;;15.60;99.90;;;;;;5028417;28;19920;-56
2021/06/07 02:22:43;;;;;;;;;;;15.60;99.90;;;;;;5026994;28;19916;-55
2021/06/07 02:25:10;;;;;;;;;;;15.60;99.90;;;;;;5027661;28;19913;-57
2021/06/07 02:27:35;;;;;;;;;;;15.60;99.90;;;;;;5028340;28;20307;-54
2021/06/07 02:30:03;;;;;;;;;;;15.60;99.90;;;;;;5028068;28;20000;-53
2021/06/07 02:32:29;;;;;;;;;;;15.60;99.90;;;;;;5028148;28;20354;-57
2021/06/07 02:34:54;;;;;;;;;;;15.60;99.90;;;;;;5025937;28;20008;-56
2021/06/07 02:37:20;;;;;;;;;;;15.60;99.90;;;;;;5028160;28;19932;-58
2021/06/07 02:39:45;;;;;;;;;;;15.50;99.90;;;;;;5031773;28;19913;-57
2021/06/07 02:42:12;;;;;;;;;;;15.60;99.90;;;;;;5031910;28;19917;-55
2021/06/07 02:44:38;;;;;;;;;;;15.60;99.90;;;;;;5031485;28;19913;-55
2021/06/07 02:47:04;;;;;;;;;;;15.50;99.90;;;;;;5031611;28;19932;-56
2021/06/07 02:49:30;;;;;;;;;;;15.50;99.90;;;;;;5032211;28;20287;-53
2021/06/07 02:51:55;;;;;;;;;;;15.50;99.90;;;;;;5031475;28;19913;-52
2021/06/07 02:54:21;;;;;;;;;;;15.50;99.90;;;;;;5031436;28;19909;-53
2021/06/07 02:56:47;;;;;;;;;;;15.60;99.90;;;;;;5031403;28;19913;-54
2021/06/07 02:59:12;;;;;;;;;;;15.50;99.90;;;;;;5031400;28;20328;-56
2021/06/07 03:01:38;;;;;;;;;;;15.50;99.90;;;;;;5030077;28;19940;-56
2021/06/07 03:04:03;;;;;;;;;;;15.50;99.90;;;;;;5030254;28;19970;-57
2021/06/07 03:06:29;;;;;;;;;;;15.50;99.90;;;;;;5031337;28;19956;-57
2021/06/07 03:08:54;;;;;;;;;;;15.50;99.90;;;;;;5031483;28;20275;-51
2021/06/07 03:11:20;;;;;;;;;;;15.60;99.90;;;;;;5031909;28;19916;-55
2021/06/07 03:13:45;;;;;;;;;;;15.60;99.90;;;;;;5031712;28;20361;-54
2021/06/07 03:16:11;;;;;;;;;;;15.60;99.90;;;;;;5031076;28;19917;-55
2021/06/07 03:18:38;;;;;;;;;;;15.60;99.90;;;;;;5031625;28;20032;-57
2021/06/07 03:21:03;;;;;;;;;;;15.60;99.90;;;;;;5031309;28;19906;-53
2021/06/07 03:23:31;;;;;;;;;;;15.50;99.90;;;;;;5031582;28;20630;-56
2021/06/07 03:25:56;;;;;;;;;;;15.50;99.90;;;;;;5030345;28;19955;-55
2021/06/07 03:28:22;;;;;;;;;;;15.50;99.90;;;;;;5029535;28;19956;-54
2021/06/07 03:30:50;;;;;;;;;;;15.50;99.90;;;;;;5028981;28;19936;-56
2021/06/07 03:33:16;;;;;;;;;;;15.50;99.90;;;;;;5029113;28;19913;-57
2021/06/07 03:35:43;;;;;;;;;;;15.50;99.90;;;;;;5031038;28;20282;-54
2021/06/07 03:38:08;;;;;;;;;;;15.50;99.90;;;;;;5030805;28;19968;-55
2021/06/07 03:40:36;;;;;;;;;;;15.50;99.90;;;;;;5031404;28;19945;-52
2021/06/07 03:43:03;;;;;;;;;;;15.50;99.90;;;;;;5030947;28;19917;-51
2021/06/07 03:45:29;;;;;;;;;;;15.50;99.90;;;;;;5030760;28;19913;-53
2021/06/07 03:47:54;;;;;;;;;;;15.60;99.90;;;;;;5029925;28;19992;-56
2021/06/07 03:50:21;;;;;;;;;;;15.60;99.90;;;;;;5028444;28;19963;-55
2021/06/07 03:52:47;;;;;;;;;;;15.60;99.90;;;;;;5031207;28;19909;-53
2021/06/07 03:55:14;;;;;;;;;;;15.60;99.90;;;;;;5030507;28;19996;-55
2021/06/07 03:57:40;;;;;;;;;;;15.60;99.90;;;;;;5019701;28;19913;-52
2021/06/07 04:00:07;;;;;;;;;;;15.60;99.90;;;;;;5029419;28;19913;-55
2021/06/07 04:02:32;;;;;;;;;;;15.60;99.90;;;;;;5030548;28;19909;-55
2021/06/07 04:04:58;;;;;;;;;;;15.60;99.90;;;;;;5029684;28;19967;-53
2021/06/07 04:07:23;;;;;;;;;;;15.60;99.90;;;;;;5030230;28;19913;-55
2021/06/07 04:09:49;;;;;;;;;;;15.60;99.90;;;;;;5030214;28;20005;-54
2021/06/07 04:12:14;;;;;;;;;;;15.60;99.90;;;;;;5030284;28;19916;-54
2021/06/07 04:14:40;;;;;;;;;;;15.50;99.90;;;;;;5030109;28;19956;-54
2021/06/07 04:17:05;;;;;;;;;;;15.60;99.90;;;;;;5030376;28;20395;-54
2021/06/07 04:19:31;;;;;;;;;;;15.60;99.90;;;;;;5029933;28;19916;-54
2021/06/07 04:21:56;;;;;;;;;;;15.60;99.90;;;;;;5029123;28;20007;-55
2021/06/07 04:24:22;;;;;;;;;;;15.60;99.90;;;;;;5029947;28;20395;-56
2021/06/07 04:26:47;;;;;;;;;;;15.60;99.90;;;;;;5029905;28;19936;-52
2021/06/07 04:29:13;;;;;;;;;;;15.60;99.90;;;;;;5029892;28;19955;-56
2021/06/07 04:31:38;;;;;;;;;;;15.70;99.90;;;;;;5030035;28;20315;-55
2021/06/07 04:34:04;;;;;;;;;;;15.70;99.90;;;;;;5029807;28;19913;-56
2021/06/07 04:36:29;;;;;;;;;;;15.70;99.90;;;;;;5029650;28;19909;-55
2021/06/07 04:38:55;;;;;;;;;;;15.80;99.90;;;;;;5028651;28;19921;-54
2021/06/07 04:41:20;;;;;;;;;;;15.80;99.90;;;;;;5029825;28;20399;-55
2021/06/07 04:43:46;;;;;;;;;;;15.80;99.90;;;;;;5029891;28;19996;-54
2021/06/07 04:46:11;;;;;;;;;;;15.90;99.90;;;;;;5029460;28;19920;-55
2021/06/07 04:48:37;;;;;;;;;;;15.90;99.90;;;;;;5025463;28;19909;-54
2021/06/07 04:51:03;;;;;;;;;;;15.90;99.90;;;;;;5029360;28;19993;-52
2021/06/07 04:53:28;;;;;;;;;;;16.00;99.90;;;;;;5027836;28;20280;-57
2021/06/07 04:55:54;;;;;;;;;;;16.00;99.90;;;;;;5025005;28;19913;-53
2021/06/07 04:58:22;;;;;;;;;;;16.10;99.90;;;;;;5029800;28;20055;-55
2021/06/07 05:00:49;;;;;;;;;;;16.10;99.90;;;;;;5029649;28;19909;-56
2021/06/07 05:03:15;;;;;;;;;;;16.10;99.90;;;;;;5030068;28;19917;-57
2021/06/07 05:05:41;;;;;;;;;;;16.10;99.90;;;;;;5029046;28;19923;-56
2021/06/07 05:08:07;;;;;;;;;;;16.10;99.90;;;;;;5029354;28;19913;-57
2021/06/07 05:10:33;;;;;;;;;;;16.10;99.90;;;;;;5029292;28;19963;-56
2021/06/07 05:12:58;;;;;;;;;;;16.10;99.90;;;;;;5027145;28;20283;-57
2021/06/07 05:15:24;;;;;;;;;;;16.10;99.90;;;;;;5022380;28;20006;-56
2021/06/07 05:17:49;;;;;;;;;;;16.10;99.90;;;;;;5028213;28;20472;-56
2021/06/07 05:20:16;;;;;;;;;;;16.10;99.90;;;;;;5027629;28;19951;-56
2021/06/07 05:22:42;;;;;;;;;;;16.20;99.90;;;;;;5027714;28;19909;-55
2021/06/07 05:25:08;;;;;;;;;;;16.20;99.90;;;;;;5025970;28;19921;-56
2021/06/07 05:27:33;;;;;;;;;;;16.20;99.90;;;;;;5027662;28;20363;-56
2021/06/07 05:30:00;;;;;;;;;;;16.10;99.90;;;;;;5027707;28;19986;-57
2021/06/07 05:32:26;;;;;;;;;;;16.20;99.90;;;;;;5028080;28;19919;-53
2021/06/07 05:34:52;;;;;;;;;;;16.20;99.90;;;;;;5028485;28;19915;-53
2021/06/07 05:37:18;;;;;;;;;;;16.30;99.90;;;;;;5028525;28;19909;-54
2021/06/07 05:39:43;;;;;;;;;;;16.30;99.90;;;;;;5028768;28;20387;-55
2021/06/07 05:42:09;;;;;;;;;;;16.30;99.90;;;;;;5027483;28;19909;-56
2021/06/07 05:44:35;;;;;;;;;;;16.30;99.90;;;;;;5028432;28;19913;-57
2021/06/07 05:47:00;;;;;;;;;;;16.30;99.90;;;;;;5027623;28;19909;-54
2021/06/07 05:49:26;;;;;;;;;;;16.30;99.90;;;;;;5028581;28;20012;-56
2021/06/07 05:51:51;;;;;;;;;;;16.30;99.90;;;;;;5028607;28;19956;-56
2021/06/07 05:54:17;;;;;;;;;;;16.30;99.90;;;;;;5028827;28;20295;-55
2021/06/07 05:56:42;;;;;;;;;;;16.30;99.90;;;;;;5028628;28;19913;-57
2021/06/07 05:59:08;;;;;;;;;;;16.30;99.90;;;;;;5028380;28;19955;-58
2021/06/07 06:01:34;;;;;;;;;;;16.30;99.90;;;;;;5027883;28;19909;-56
2021/06/07 06:03:59;;;;;;;;;;;16.40;99.90;;;;;;5027125;28;19913;-54
2021/06/07 06:06:25;;;;;;;;;;;16.40;99.90;;;;;;5023574;28;19974;-56
2021/06/07 06:08:51;;;;;;;;;;;16.40;99.90;;;;;;5012520;28;19940;-58
2021/06/07 06:11:17;;;;;;;;;;;16.40;99.90;;;;;;5012269;28;19917;-58
2021/06/07 06:13:43;;;;;;;;;;;16.40;99.90;;;;;;5010464;28;19916;-56
2021/06/07 06:16:08;;;;;;;;;;;16.40;99.90;;;;;;5010184;28;19918;-56
2021/06/07 06:18:37;;;;;;;;;;;16.50;99.90;;;;;;5021499;28;19913;-54
2021/06/07 06:21:03;;;;;;;;;;;16.50;99.90;;;;;;5028022;28;19914;-56
2021/06/07 06:23:28;;;;;;;;;;;16.50;99.90;;;;;;5027448;28;20436;-55
2021/06/07 06:25:53;;;;;;;;;;;16.50;99.90;;;;;;5026613;28;19916;-55
2021/06/07 06:28:19;;;;;;;;;;;16.50;99.90;;;;;;5028390;28;19913;-56
2021/06/07 06:30:44;;;;;;;;;;;16.60;99.90;;;;;;5027028;28;19909;-58
2021/06/07 06:33:10;;;;;;;;;;;16.60;99.90;;;;;;5028330;28;20015;-56
2021/06/07 06:35:36;;;;;;;;;;;16.60;99.90;;;;;;5028256;28;19917;-58
2021/06/07 06:38:01;;;;;;;;;;;16.60;99.90;;;;;;5028410;28;20248;-57
2021/06/07 06:40:28;;;;;;;;;;;16.60;99.90;;;;;;5028434;28;20361;-56
2021/06/07 06:42:54;;;;;;;;;;;16.60;99.90;;;;;;5027833;28;20295;-52
2021/06/07 06:45:20;;;;;;;;;;;16.70;99.90;;;;;;5027786;28;20008;-52
2021/06/07 06:47:46;;;;;;;;;;;16.70;99.90;;;;;;5028293;28;20064;-54
2021/06/07 06:50:13;;;;;;;;;;;16.60;99.90;;;;;;5027820;28;20390;-58
2021/06/07 06:52:39;;;;;;;;;;;16.60;99.90;;;;;;5028289;28;19974;-53
2021/06/07 06:55:05;;;;;;;;;;;16.60;99.90;;;;;;5027582;28;20006;-52
2021/06/07 06:57:30;;;;;;;;;;;16.60;99.90;;;;;;5027832;28;20052;-57
2021/06/07 06:59:56;;;;;;;;;;;16.60;99.90;;;;;;5027613;28;20486;-54
2021/06/07 07:02:22;;;;;;;;;;;16.70;99.90;;;;;;5026530;28;19915;-56
2021/06/07 07:04:47;;;;;;;;;;;16.80;99.90;;;;;;5027778;28;19913;-56
2021/06/07 07:07:13;;;;;;;;;;;16.80;99.90;;;;;;5017679;28;19909;-57
2021/06/07 07:09:42;;;;;;;;;;;16.80;99.90;;;;;;5026556;28;19913;-53
2021/06/07 07:12:08;;;;;;;;;;;16.80;99.90;;;;;;5027961;28;19998;-54
2021/06/07 07:14:33;;;;;;;;;;;16.90;99.90;;;;;;5027010;28;19941;-52
2021/06/07 07:16:58;;;;;;;;;;;16.90;99.90;;;;;;5028207;28;19920;-52
2021/06/07 07:19:24;;;;;;;;;;;17.00;99.90;;;;;;5027347;28;19916;-56
2021/06/07 07:21:49;;;;;;;;;;;17.00;99.90;;;;;;5026338;28;19917;-52
2021/06/07 07:24:15;;;;;;;;;;;17.00;99.90;;;;;;5027656;28;20544;-54
2021/06/07 07:26:40;;;;;;;;;;;17.00;99.90;;;;;;5024826;28;19913;-57
2021/06/07 07:29:06;;;;;;;;;;;17.10;99.90;;;;;;5016331;28;19910;-53
2021/06/07 07:31:31;;;;;;;;;;;17.10;99.90;;;;;;5031109;28;20016;-56
2021/06/07 07:33:57;;;;;;;;;;;17.10;99.90;;;;;;5031125;28;19909;-58
2021/06/07 07:36:22;;;;;;;;;;;17.10;99.90;;;;;;5030412;28;20530;-56
2021/06/07 07:38:48;;;;;;;;;;;17.10;99.90;;;;;;5031042;28;19909;-55
2021/06/07 07:41:14;;;;;;;;;;;17.20;99.90;;;;;;5031032;28;19916;-57
2021/06/07 07:43:39;;;;;;;;;;;17.30;99.90;;;;;;5029860;28;20007;-58
2021/06/07 07:46:05;;;;;;;;;;;17.30;99.90;;;;;;5030835;28;19909;-57
2021/06/07 07:48:30;;;;;;;;;;;17.30;99.90;;;;;;5031153;28;19913;-55
2021/06/07 07:50:56;;;;;;;;;;;17.30;99.90;;;;;;5030506;28;19913;-55
2021/06/07 07:53:22;;;;;;;;;;;17.20;99.90;;;;;;5030779;28;19909;-54
2021/06/07 07:55:52;;;;;;;;;;;17.20;99.90;;;;;;5030144;28;19948;-55
2021/06/07 07:58:18;;;;;;;;;;;17.30;99.90;;;;;;5030079;28;19909;-56
2021/06/07 08:00:43;;;;;;;;;;;17.40;99.90;;;;;;5029383;28;19910;-54
2021/06/07 08:03:09;;;;;;;;;;;17.50;99.90;;;;;;5029453;28;19909;-57
2021/06/07 08:05:35;;;;;;;;;;;17.70;99.90;;;;;;5030067;28;19920;-55
2021/06/07 08:08:01;;;;;;;;;;;17.90;99.90;;;;;;5027663;28;20051;-57
2021/06/07 08:10:26;;;;;;;;;;;18.00;99.90;;;;;;5024448;28;20000;-57
2021/06/07 08:12:52;;;;;;;;;;;18.20;99.90;;;;;;5030149;28;20059;-56
2021/06/07 08:15:18;;;;;;;;;;;18.40;99.90;;;;;;5030183;28;19924;-55
2021/06/07 08:17:43;;;;;;;;;;;18.60;99.90;;;;;;5031040;28;19978;-55
2021/06/07 08:20:11;;;;;;;;;;;18.70;99.90;;;;;;5029090;28;19909;-56
2021/06/07 08:22:37;;;;;;;;;;;18.80;99.90;;;;;;5030879;28;20299;-55
2021/06/07 08:25:03;;;;;;;;;;;19.10;99.90;;;;;;5029938;28;19909;-55
2021/06/07 08:27:29;;;;;;;;;;;19.10;99.90;;;;;;5030002;28;19916;-54
2021/06/07 08:29:55;;;;;;;;;;;19.30;99.90;;;;;;5027768;28;19944;-55
2021/06/07 08:32:21;;;;;;;;;;;19.10;99.90;;;;;;5029646;28;19941;-58
2021/06/07 08:34:47;;;;;;;;;;;18.90;99.90;;;;;;5029202;28;19953;-57
2021/06/07 08:37:12;;;;;;;;;;;18.90;99.90;;;;;;5012938;28;19919;-56
2021/06/07 08:39:38;;;;;;;;;;;19.10;99.90;;;;;;5013523;28;19916;-56
2021/06/07 08:42:03;;;;;;;;;;;19.10;99.90;;;;;;5014608;28;20296;-57
2021/06/07 08:44:29;;;;;;;;;;;19.20;99.90;;;;;;5029903;28;19909;-57
2021/06/07 08:46:55;;;;;;;;;;;19.20;99.90;;;;;;5029632;28;19909;-55
2021/06/07 08:49:21;;;;;;;;;;;19.30;99.90;;;;;;5029484;28;20486;-54
2021/06/07 08:51:46;;;;;;;;;;;19.30;99.90;;;;;;5028180;28;19953;-56
2021/06/07 08:54:12;;;;;;;;;;;19.40;99.90;;;;;;5029580;28;20330;-57
2021/06/07 08:56:37;;;;;;;;;;;19.30;99.90;;;;;;5029088;28;20405;-56
2021/06/07 08:59:03;;;;;;;;;;;19.30;99.90;;;;;;5029619;28;20380;-55
2021/06/07 09:01:28;;;;;;;;;;;19.20;99.90;;;;;;5022372;28;19935;-53
2021/06/07 09:03:54;;;;;;;;;;;19.30;99.90;;;;;;5028067;28;19924;-57
2021/06/07 09:06:25;;;;;;;;;;;19.40;99.90;;;;;;5013317;28;19913;-57
2021/06/07 09:09:02;;;;;;;;;;;19.60;99.90;;;;;;5010625;28;19932;-55
2021/06/07 09:11:28;;;;;;;;;;;19.70;99.90;;;;;;5017624;28;19916;-57
2021/06/07 09:13:53;;;;;;;;;;;19.70;99.90;;;;;;5027840;28;19909;-57
2021/06/07 09:16:19;;;;;;;;;;;19.90;99.90;;;;;;5054111;22;19983;-50
2021/06/07 09:18:46;;;;;;;;;;;20.00;99.90;;;;;;5047974;28;19921;-56
2021/06/07 09:21:19;;;;;;;;;;;19.90;99.90;;;;;;5049055;28;19962;-51
2021/06/07 09:23:44;;;;;;;;;;;20.00;99.90;;;;;;5048797;28;19913;-55
2021/06/07 09:26:23;;;;;;;;;;;19.90;99.90;;;;;;5046922;28;20604;-56
2021/06/07 09:28:49;;;;;;;;;;;19.90;99.90;;;;;;5029021;28;20524;-55
2021/06/07 09:31:15;;;;;;;;;;;19.80;99.90;;;;;;5028832;28;19913;-54
2021/06/07 09:33:42;;;;;;;;;;;19.90;99.90;;;;;;5027820;28;19909;-56
2021/06/07 09:36:08;;;;;;;;;;;19.80;99.90;;;;;;5028609;28;20370;-53
2021/06/07 09:38:35;;;;;;;;;;;19.80;99.90;;;;;;5029267;28;19936;-55
2021/06/07 09:41:02;;;;;;;;;;;19.90;99.90;;;;;;5028927;28;20398;-55
2021/06/07 09:43:45;;;;;;;;;;;19.90;99.90;;;;;;5028835;28;19909;-55
2021/06/07 09:46:10;;;;;;;;;;;20.10;99.90;;;;;;5028842;28;20557;-56
2021/06/07 09:48:36;;;;;;;;;;;20.30;99.90;;;;;;5027781;28;19913;-55
2021/06/07 09:51:02;;;;;;;;;;;20.40;99.90;;;;;;5028803;28;20000;-56
2021/06/07 09:53:40;;;;;;;;;;;20.60;99.90;;;;;;5027751;28;20004;-56
2021/06/07 09:56:05;;;;;;;;;;;20.90;99.90;;;;;;5027333;28;19959;-53
2021/06/07 09:58:32;;;;;;;;;;;21.30;99.90;;;;;;5028684;28;20007;-56
2021/06/07 10:00:58;;;;;;;;;;;21.60;99.90;;;;;;5028416;28;19909;-54
2021/06/07 10:03:41;;;;;;;;;;;21.80;99.90;;;;;;5027152;28;19909;-53
2021/06/07 10:06:20;;;;;;;;;;;21.80;99.90;;;;;;5030299;28;19909;-56
2021/06/07 10:08:47;;;;;;;;;;;21.80;99.90;;;;;;5028926;28;20410;-54
2021/06/07 10:11:16;;;;;;;;;;;21.80;99.90;;;;;;5028798;28;19909;-51
2021/06/07 10:13:42;;;;;;;;;;;21.60;99.90;;;;;;5027339;28;19915;-54
2021/06/07 10:16:11;;;;;;;;;;;21.50;99.90;;;;;;5028163;28;20338;-55
2021/06/07 10:18:36;;;;;;;;;;;21.60;99.90;;;;;;5028467;28;19928;-54
2021/06/07 10:21:04;;;;;;;;;;;21.60;99.90;;;;;;5027328;28;19913;-57
2021/06/07 10:23:31;;;;;;;;;;;21.60;99.90;;;;;;5028893;28;19962;-55
2021/06/07 10:25:58;;;;;;;;;;;21.70;99.90;;;;;;5028158;28;19955;-54
2021/06/07 10:28:27;;;;;;;;;;;21.80;99.90;;;;;;5027128;28;19936;-54
2021/06/07 10:30:55;;;;;;;;;;;21.90;99.90;;;;;;5028476;28;19909;-55
2021/06/07 10:33:32;;;;;;;;;;;22.00;99.90;;;;;;5026833;28;19959;-53
2021/06/07 10:36:17;;;;;;;;;;;22.00;99.90;;;;;;5028392;28;19913;-55
2021/06/07 10:38:43;;;;;;;;;;;22.10;99.90;;;;;;5028339;28;19955;-55
2021/06/07 10:41:20;;;;;;;;;;;22.20;99.90;;;;;;5028332;28;19944;-54
2021/06/07 10:43:48;;;;;;;;;;;22.30;99.90;;;;;;5028516;28;19915;-55
2021/06/07 10:46:19;;;;;;;;;;;22.30;99.90;;;;;;5037787;28;19909;-54
2021/06/07 10:48:49;;;;;;;;;;;22.30;99.90;;;;;;5028489;28;20402;-55
2021/06/07 10:51:14;;;;;;;;;;;22.40;99.90;;;;;;5028509;28;19998;-56
2021/06/07 10:53:40;;;;;;;;;;;22.70;99.90;;;;;;5028114;28;20526;-55
2021/06/07 10:56:08;;;;;;;;;;;22.90;99.90;;;;;;5027701;28;20008;-53
2021/06/07 10:58:34;;;;;;;;;;;22.90;99.90;;;;;;5028733;28;20311;-54
2021/06/07 11:01:01;;;;;;;;;;;23.00;99.90;;;;;;5031879;28;19955;-53
2021/06/07 11:03:32;;;;;;;;;;;23.10;99.90;;;;;;5030741;28;19954;-55
2021/06/07 11:05:59;;;;;;;;;;;23.10;99.90;;;;;;5031402;28;19920;-54
2021/06/07 11:08:26;;;;;;;;;;;23.10;99.90;;;;;;5032061;28;20000;-53
2021/06/07 11:11:01;;;;;;;;;;;23.00;99.90;;;;;;5030020;28;19916;-55
2021/06/07 11:13:30;;;;;;;;;;;23.00;99.90;;;;;;5031807;28;19909;-55
2021/06/07 11:15:57;;;;;;;;;;;22.90;99.90;;;;;;5031748;28;19921;-55
2021/06/07 11:18:42;;;;;;;;;;;22.90;99.90;;;;;;5031854;28;19927;-56
2021/06/07 11:21:08;;;;;;;;;;;23.10;99.90;;;;;;5031539;28;19917;-53
2021/06/07 11:23:33;;;;;;;;;;;23.40;99.90;;;;;;5030428;28;19996;-55
2021/06/07 11:25:59;;;;;;;;;;;23.40;99.90;;;;;;5031324;28;19944;-53
2021/06/07 11:28:41;;;;;;;;;;;23.50;99.90;;;;;;5031606;28;20008;-54
2021/06/07 11:31:19;;;;;;;;;;;23.70;99.90;;;;;;5031549;28;19999;-56
2021/06/07 11:33:48;;;;;;;;;;;23.90;99.90;;;;;;5031347;28;20000;-52
2021/06/07 11:36:32;;;;;;;;;;;24.00;99.90;;;;;;5026985;28;19967;-55
2021/06/07 11:39:00;;;;;;;;;;;24.00;99.90;;;;;;5030936;28;19957;-56
2021/06/07 11:41:39;;;;;;;;;;;24.00;99.90;;;;;;5029005;28;20595;-56
2021/06/07 11:44:05;;;;;;;;;;;24.00;99.90;;;;;;5031226;28;19917;-54
2021/06/07 11:46:30;;;;;;;;;;;24.00;99.90;;;;;;5030182;28;20284;-53
2021/06/07 11:49:09;;;;;;;;;;;24.00;99.90;;;;;;5030095;28;20304;-54
2021/06/07 11:51:35;;;;;;;;;;;24.10;99.90;;;;;;5030116;28;20008;-54
2021/06/07 11:54:20;;;;;;;;;;;24.20;99.90;;;;;;5029788;28;19936;-54
2021/06/07 11:56:52;;;;;;;;;;;24.20;99.90;;;;;;5030553;28;19913;-55
2021/06/07 11:59:25;;;;;;;;;;;24.30;99.90;;;;;;5030963;28;19944;-54
2021/06/07 12:01:50;;;;;;;;;;;24.40;99.90;;;;;;5030762;28;20394;-55
2021/06/07 12:04:23;;;;;;;;;;;24.30;99.90;;;;;;5030314;28;19913;-53
2021/06/07 12:06:48;;;;;;;;;;;24.40;99.90;;;;;;5028996;28;19962;-53
2021/06/07 12:09:14;;;;;;;;;;;24.20;99.90;;;;;;5029035;28;19921;-55
2021/06/07 12:11:40;;;;;;;;;;;24.30;99.90;;;;;;5028468;28;19917;-55
2021/06/07 12:14:05;;;;;;;;;;;24.30;99.90;;;;;;5030679;28;19909;-54
2021/06/07 12:16:36;;;;;;;;;;;24.30;99.90;;;;;;5029601;28;19913;-54
2021/06/07 12:19:06;;;;;;;;;;;24.40;99.90;;;;;;5028887;28;19917;-55
2021/06/07 12:21:32;;;;;;;;;;;24.40;99.90;;;;;;5029496;28;19984;-56
2021/06/07 12:24:08;;;;;;;;;;;24.30;99.90;;;;;;5030544;28;19909;-57
2021/06/07 12:29:29;;;;;;;;;;;24.20;99.90;;;;;;5026236;28;19962;-52
2021/06/07 12:32:18;;;;;;;;;;;24.10;99.90;;;;;;5030532;28;20351;-52
2021/06/07 12:35:02;;;;;;;;;;;24.10;99.90;;;;;;5022092;28;19917;-53
2021/06/07 12:37:29;;;;;;;;;;;24.20;99.90;;;;;;5024780;28;19909;-51
2021/06/07 12:40:07;;;;;;;;;;;24.00;99.90;;;;;;5029803;28;19982;-53
2021/06/07 12:42:33;;;;;;;;;;;24.00;99.90;;;;;;5030238;28;19909;-52
2021/06/07 12:45:03;;;;;;;;;;;24.10;99.90;;;;;;5029607;28;19916;-57
2021/06/07 12:47:29;;;;;;;;;;;24.10;99.90;;;;;;5030099;28;19913;-55
2021/06/07 12:50:05;;;;;;;;;;;24.30;99.90;;;;;;5029661;28;19913;-55
2021/06/07 12:52:30;;;;;;;;;;;24.50;99.90;;;;;;5030606;28;19913;-54
2021/06/07 12:54:56;;;;;;;;;;;24.60;99.90;;;;;;5029303;28;19996;-56
2021/06/07 12:57:26;;;;;;;;;;;24.60;99.90;;;;;;5029829;28;19915;-52
2021/06/07 12:59:51;;;;;;;;;;;24.50;99.90;;;;;;5027222;28;19914;-55
2021/06/07 13:02:29;;;;;;;;;;;24.50;99.90;;;;;;5029163;28;19916;-54
2021/06/07 13:04:55;;;;;;;;;;;24.40;99.90;;;;;;5028827;28;19913;-54
2021/06/07 13:07:20;;;;;;;;;;;24.40;99.90;;;;;;5029645;28;20364;-55
2021/06/07 13:09:49;;;;;;;;;;;24.40;99.90;;;;;;5029584;28;19913;-51
2021/06/07 13:12:21;;;;;;;;;;;24.60;99.90;;;;;;5026268;28;19924;-54
2021/06/07 13:14:56;;;;;;;;;;;24.60;99.90;;;;;;5028454;28;19913;-51
2021/06/07 13:17:22;;;;;;;;;;;24.60;99.90;;;;;;5025965;28;19932;-55
2021/06/07 13:19:51;;;;;;;;;;;24.50;99.90;;;;;;5029356;28;19913;-52
2021/06/07 13:22:17;;;;;;;;;;;24.50;99.90;;;;;;5044286;28;20390;-55
2021/06/07 13:24:44;;;;;;;;;;;24.40;99.90;;;;;;5028416;28;19963;-56
2021/06/07 13:27:19;;;;;;;;;;;24.30;99.90;;;;;;5028849;28;19913;-53
2021/06/07 13:29:46;;;;;;;;;;;24.40;99.90;;;;;;5030396;28;19979;-53
2021/06/07 13:32:11;;;;;;;;;;;24.30;99.90;;;;;;5027382;28;19913;-50
2021/06/07 13:34:42;;;;;;;;;;;24.30;99.90;;;;;;5028373;28;19917;-52
2021/06/07 13:37:07;;;;;;;;;;;24.20;99.90;;;;;;5027197;28;19960;-50
2021/06/07 13:39:33;;;;;;;;;;;24.40;99.90;;;;;;5028338;28;19913;-53
2021/06/07 13:41:59;;;;;;;;;;;24.60;99.90;;;;;;5027011;28;19909;-56
2021/06/07 13:44:24;;;;;;;;;;;24.70;99.90;;;;;;5028324;28;20387;-52
2021/06/07 13:47:00;;;;;;;;;;;24.60;99.90;;;;;;5028000;28;19917;-53
2021/06/07 13:49:26;;;;;;;;;;;24.50;99.90;;;;;;5028704;28;20003;-54
2021/06/07 13:51:51;;;;;;;;;;;24.70;99.90;;;;;;5028637;28;20654;-51
2021/06/07 13:54:17;;;;;;;;;;;24.50;99.90;;;;;;5028760;28;19909;-55
2021/06/07 13:56:42;;;;;;;;;;;24.40;99.90;;;;;;5028470;28;20264;-54
2021/06/07 13:59:20;;;;;;;;;;;24.60;99.90;;;;;;5028578;28;19998;-56
2021/06/07 14:01:46;;;;;;;;;;;24.50;99.90;;;;;;5028779;28;19909;-52
2021/06/07 14:04:11;;;;;;;;;;;24.60;99.90;;;;;;5028691;28;19955;-54
2021/06/07 14:06:38;;;;;;;;;;;24.50;99.90;;;;;;5028874;28;19932;-53
2021/06/07 14:09:04;;;;;;;;;;;24.60;99.90;;;;;;5029449;28;19909;-55
2021/06/07 14:11:30;;;;;;;;;;;24.60;99.90;;;;;;5028054;28;19917;-53
2021/06/07 14:13:57;;;;;;;;;;;24.60;99.90;;;;;;5028802;28;19913;-52
2021/06/07 14:16:23;;;;;;;;;;;24.60;99.90;;;;;;5027862;28;19913;-53
2021/06/07 14:18:49;;;;;;;;;;;24.70;99.90;;;;;;5028874;28;19967;-53